Time;durP1;ratioP1;P1;durP2;ratioP2;P2;SDS_P1;SDS_P2;PMS_P1;PMS_P2;Temp;Humidity;BMP_temperature;BMP_pressure;BME280_temperature;BME280_humidity;BME280_pressure;Samples;Min_cycle;Max_cycle;Signal;HPM_P1;HPM_P2
2023/07/30 00:02:19;;;;;;;1.42;0.85;;;19.50;99.90;;;;;;4992533;28;20040;-68
2023/07/30 00:04:46;;;;;;;4.68;0.93;;;19.50;99.90;;;;;;5010719;28;20026;-68
2023/07/30 00:07:12;;;;;;;1.17;0.52;;;19.50;99.90;;;;;;5010858;28;20025;-68
2023/07/30 00:09:38;;;;;;;1.30;0.68;;;19.50;99.90;;;;;;5010922;28;20030;-68
2023/07/30 00:12:08;;;;;;;1.83;1.15;;;19.40;99.90;;;;;;5010755;28;20521;-68
2023/07/30 00:14:34;;;;;;;2.90;0.70;;;19.30;99.90;;;;;;5016795;28;20433;-68
2023/07/30 00:17:01;;;;;;;1.73;0.80;;;19.30;99.90;;;;;;5043788;28;20025;-68
2023/07/30 00:19:27;;;;;;;1.35;0.63;;;19.40;99.90;;;;;;5029630;28;20496;-68
2023/07/30 00:21:53;;;;;;;0.50;0.32;;;19.30;99.90;;;;;;5003608;28;20031;-68
2023/07/30 00:24:18;;;;;;;1.08;0.55;;;19.30;99.90;;;;;;5053356;28;20051;-68
2023/07/30 00:26:44;;;;;;;2.00;0.80;;;19.30;99.90;;;;;;5054211;28;20112;-68
2023/07/30 00:29:10;;;;;;;3.60;0.65;;;19.30;99.90;;;;;;5054205;28;20056;-68
2023/07/30 00:31:35;;;;;;;1.45;0.70;;;19.40;99.90;;;;;;5054199;28;20440;-68
2023/07/30 00:34:01;;;;;;;1.25;0.52;;;19.40;99.90;;;;;;5053309;28;20032;-68
2023/07/30 00:36:27;;;;;;;0.65;0.45;;;19.40;99.90;;;;;;5053889;28;20104;-68
2023/07/30 00:38:53;;;;;;;0.95;0.47;;;19.30;99.90;;;;;;5053934;28;20143;-68
2023/07/30 00:41:19;;;;;;;1.70;0.57;;;19.30;99.90;;;;;;5053954;28;20032;-68
2023/07/30 00:43:45;;;;;;;1.83;0.90;;;19.20;99.90;;;;;;5053608;28;20051;-68
2023/07/30 00:46:12;;;;;;;1.85;0.60;;;19.20;99.90;;;;;;5053849;28;20035;-67
2023/07/30 00:48:38;;;;;;;1.20;0.60;;;19.20;99.90;;;;;;5053575;28;20032;-67
2023/07/30 00:51:04;;;;;;;1.50;0.70;;;19.20;99.90;;;;;;5036183;28;20024;-68
2023/07/30 00:53:30;;;;;;;0.95;0.40;;;19.20;99.90;;;;;;5035252;28;20029;-68
2023/07/30 00:55:56;;;;;;;3.72;0.50;;;19.10;99.90;;;;;;5053647;28;20040;-68
2023/07/30 00:58:23;;;;;;;0.88;0.60;;;19.10;99.90;;;;;;5035622;28;20692;-67
2023/07/30 01:00:51;;;;;;;4.57;0.75;;;19.10;99.90;;;;;;5035761;28;20032;-68
2023/07/30 01:03:17;;;;;;;5.28;0.85;;;19.20;99.90;;;;;;5034819;28;20029;-68
2023/07/30 01:05:45;;;;;;;1.25;0.70;;;19.10;99.90;;;;;;5028538;28;20064;-68
2023/07/30 01:08:10;;;;;;;0.57;0.32;;;19.10;99.90;;;;;;5013045;28;20048;-68
2023/07/30 01:10:40;;;;;;;1.23;0.70;;;19.00;99.90;;;;;;5043526;28;20033;-68
2023/07/30 01:13:09;;;;;;;1.75;0.75;;;19.10;99.90;;;;;;5014842;28;20033;-68
2023/07/30 01:15:36;;;;;;;1.63;0.80;;;19.10;99.90;;;;;;5023315;28;20034;-67
2023/07/30 01:18:01;;;;;;;1.10;0.70;;;19.10;99.90;;;;;;4995777;28;20026;-68
2023/07/30 01:20:31;;;;;;;4.65;0.93;;;19.10;99.90;;;;;;4995907;28;20113;-67
2023/07/30 01:22:59;;;;;;;1.05;0.47;;;19.10;99.90;;;;;;4995094;28;20514;-65
2023/07/30 01:25:33;;;;;;;1.00;0.43;;;19.10;99.90;;;;;;5033200;28;20029;-65
2023/07/30 01:28:04;;;;;;;1.48;0.45;;;19.20;99.90;;;;;;5032783;28;20416;-65
2023/07/30 01:30:41;;;;;;;1.83;0.75;;;19.20;99.90;;;;;;5015737;28;20025;-65
2023/07/30 01:33:10;;;;;;;2.75;0.60;;;19.20;99.90;;;;;;5032261;28;20041;-66
2023/07/30 01:35:37;;;;;;;5.93;0.80;;;19.10;99.90;;;;;;5032757;28;20072;-65
2023/07/30 01:38:05;;;;;;;2.85;0.98;;;19.10;99.90;;;;;;5032755;28;20069;-66
2023/07/30 01:40:32;;;;;;;1.85;0.70;;;19.10;99.90;;;;;;5013360;28;20033;-64
2023/07/30 01:42:58;;;;;;;1.40;0.75;;;19.20;99.90;;;;;;5032182;28;20120;-65
2023/07/30 01:45:24;;;;;;;1.95;0.82;;;19.20;99.90;;;;;;5014837;28;21081;-64
2023/07/30 01:47:50;;;;;;;1.08;0.70;;;19.10;99.90;;;;;;5032619;28;20036;-66
2023/07/30 01:50:15;;;;;;;1.85;0.65;;;19.10;99.90;;;;;;5014899;28;20033;-64
2023/07/30 01:52:41;;;;;;;2.15;0.85;;;19.00;99.90;;;;;;5031619;28;20033;-66
2023/07/30 01:55:07;;;;;;;1.65;0.88;;;19.00;99.90;;;;;;5032468;28;20026;-66
2023/07/30 01:57:33;;;;;;;1.90;0.95;;;19.10;99.90;;;;;;5032279;28;20056;-64
2023/07/30 01:59:59;;;;;;;1.75;0.82;;;19.20;99.90;;;;;;5032496;28;20022;-66
2023/07/30 02:02:25;;;;;;;2.53;0.85;;;19.20;99.90;;;;;;5031487;28;20026;-65
2023/07/30 02:04:50;;;;;;;1.55;0.77;;;19.10;99.90;;;;;;5014468;28;20033;-65
2023/07/30 02:07:16;;;;;;;7.95;0.90;;;19.10;99.90;;;;;;5032163;28;20091;-65
2023/07/30 02:09:43;;;;;;;2.20;1.00;;;19.10;99.90;;;;;;5032142;28;20496;-64
2023/07/30 02:12:09;;;;;;;3.67;1.15;;;19.00;99.90;;;;;;5032023;28;20057;-65
2023/07/30 02:14:35;;;;;;;3.55;0.63;;;19.00;99.90;;;;;;5027704;28;20022;-65
2023/07/30 02:17:01;;;;;;;1.33;0.60;;;19.00;99.90;;;;;;5012269;28;20060;-65
2023/07/30 02:19:26;;;;;;;1.25;0.70;;;19.00;99.90;;;;;;4994511;28;20041;-65
2023/07/30 02:21:52;;;;;;;1.88;1.13;;;19.10;99.90;;;;;;5012497;28;20034;-65
2023/07/30 02:24:18;;;;;;;1.60;0.90;;;19.10;99.90;;;;;;5031085;28;20500;-65
2023/07/30 02:26:44;;;;;;;1.58;0.90;;;19.10;99.90;;;;;;5043517;28;20060;-65
2023/07/30 02:29:09;;;;;;;1.75;0.70;;;19.00;99.90;;;;;;5032709;28;20112;-65
2023/07/30 02:31:35;;;;;;;1.75;1.05;;;19.00;99.90;;;;;;5032037;28;20033;-65
2023/07/30 02:34:01;;;;;;;1.80;0.80;;;19.00;99.90;;;;;;5031142;28;20037;-65
2023/07/30 02:36:26;;;;;;;1.00;0.70;;;19.00;99.90;;;;;;5031906;28;20109;-65
2023/07/30 02:38:52;;;;;;;3.42;1.30;;;19.00;99.90;;;;;;5030636;28;20099;-65
2023/07/30 02:41:18;;;;;;;3.22;0.70;;;19.00;99.90;;;;;;5031422;28;20119;-64
2023/07/30 02:43:44;;;;;;;2.15;1.05;;;19.00;99.90;;;;;;5029503;28;20083;-65
2023/07/30 02:46:09;;;;;;;5.57;1.58;;;19.00;99.90;;;;;;5013827;28;20025;-65
2023/07/30 02:48:35;;;;;;;3.17;1.30;;;19.00;99.90;;;;;;5031429;28;20397;-65
2023/07/30 02:51:01;;;;;;;3.70;1.50;;;18.90;99.90;;;;;;5031426;28;20036;-65
2023/07/30 02:53:26;;;;;;;4.88;1.38;;;18.90;99.90;;;;;;5030441;28;20032;-65
2023/07/30 02:55:52;;;;;;;1.88;1.00;;;18.90;99.90;;;;;;5031382;28;20045;-65
2023/07/30 02:58:18;;;;;;;2.63;1.38;;;18.90;99.90;;;;;;5031068;28;20037;-65
2023/07/30 03:00:43;;;;;;;3.58;1.40;;;18.80;99.90;;;;;;5031176;28;20068;-65
2023/07/30 03:03:09;;;;;;;4.07;1.65;;;18.90;99.90;;;;;;5030440;28;20025;-65
2023/07/30 03:05:35;;;;;;;2.58;1.40;;;18.90;99.90;;;;;;5031293;28;20389;-65
2023/07/30 03:08:01;;;;;;;2.08;1.10;;;19.00;99.90;;;;;;5029747;28;20657;-65
2023/07/30 03:10:27;;;;;;;3.70;1.42;;;19.00;99.90;;;;;;5038622;28;20029;-65
2023/07/30 03:12:52;;;;;;;2.58;1.50;;;19.00;99.90;;;;;;5041549;28;20036;-65
2023/07/30 03:15:18;;;;;;;2.95;1.63;;;19.00;99.90;;;;;;5041048;28;20033;-65
2023/07/30 03:17:44;;;;;;;2.17;1.40;;;19.00;99.90;;;;;;5013104;28;20034;-65
2023/07/30 03:20:10;;;;;;;2.58;1.38;;;19.00;99.90;;;;;;5030956;28;20037;-65
2023/07/30 03:22:36;;;;;;;3.33;1.63;;;18.90;99.90;;;;;;5030300;28;20033;-65
2023/07/30 03:25:02;;;;;;;3.60;1.88;;;19.00;99.90;;;;;;5030712;28;20052;-65
2023/07/30 03:27:27;;;;;;;2.30;1.30;;;19.00;99.90;;;;;;5031026;28;20123;-65
2023/07/30 03:29:53;;;;;;;3.58;1.65;;;19.00;99.90;;;;;;5013114;28;20065;-65
2023/07/30 03:32:19;;;;;;;3.40;1.52;;;19.00;99.90;;;;;;5029971;28;20107;-65
2023/07/30 03:34:44;;;;;;;2.65;1.40;;;19.00;99.90;;;;;;5030148;28;20392;-65
2023/07/30 03:37:10;;;;;;;4.40;2.00;;;19.00;99.90;;;;;;5030709;28;20036;-65
2023/07/30 03:39:36;;;;;;;4.95;1.90;;;19.00;99.90;;;;;;5030782;28;20039;-65
2023/07/30 03:42:02;;;;;;;2.58;1.70;;;19.00;99.90;;;;;;5012976;28;20068;-65
2023/07/30 03:44:27;;;;;;;6.13;2.22;;;18.90;99.90;;;;;;5029889;28;20117;-65
2023/07/30 03:46:53;;;;;;;3.33;1.88;;;19.00;99.90;;;;;;5030595;28;20021;-65
2023/07/30 03:49:19;;;;;;;5.40;1.80;;;19.00;99.90;;;;;;5030691;28;20571;-65
2023/07/30 03:51:45;;;;;;;3.55;1.88;;;18.90;99.90;;;;;;5034579;28;20474;-65
2023/07/30 03:54:10;;;;;;;3.47;1.92;;;18.90;99.90;;;;;;5016198;28;20112;-65
2023/07/30 03:56:36;;;;;;;13.20;2.40;;;18.90;99.90;;;;;;5034429;28;20067;-65
2023/07/30 03:59:02;;;;;;;9.85;2.47;;;18.90;99.90;;;;;;5034653;28;20428;-65
2023/07/30 04:01:29;;;;;;;4.18;2.05;;;18.90;99.90;;;;;;5017154;28;20032;-65
2023/07/30 04:03:54;;;;;;;3.58;1.95;;;18.90;99.90;;;;;;5016337;28;20021;-65
2023/07/30 04:06:20;;;;;;;4.47;2.22;;;18.90;99.90;;;;;;5034501;28;20496;-65
2023/07/30 04:08:46;;;;;;;3.83;2.05;;;18.90;99.90;;;;;;5034224;28;20033;-65
2023/07/30 04:11:11;;;;;;;4.85;1.95;;;18.90;99.90;;;;;;5034414;28;20116;-64
2023/07/30 04:13:37;;;;;;;3.65;2.05;;;18.90;99.90;;;;;;5033607;28;20037;-65
2023/07/30 04:16:03;;;;;;;5.03;1.85;;;18.90;99.90;;;;;;5034299;28;20041;-65
2023/07/30 04:18:29;;;;;;;4.47;2.10;;;18.90;99.90;;;;;;5034148;28;20385;-65
2023/07/30 04:20:58;;;;;;;8.27;2.92;;;18.90;99.90;;;;;;5034333;28;20112;-65
2023/07/30 04:23:24;;;;;;;4.85;2.13;;;18.90;99.90;;;;;;5043173;23;20338;-66
2023/07/30 04:25:50;;;;;;;4.30;2.13;;;19.00;99.90;;;;;;5023995;28;20022;-66
2023/07/30 04:28:16;;;;;;;3.97;2.10;;;19.00;99.90;;;;;;5014444;28;20025;-66
2023/07/30 04:30:42;;;;;;;4.32;2.22;;;19.00;99.90;;;;;;5014248;28;20025;-66
2023/07/30 04:33:08;;;;;;;3.85;1.90;;;19.00;99.90;;;;;;5012050;28;20053;-66
2023/07/30 04:35:33;;;;;;;4.40;2.53;;;19.00;99.90;;;;;;5014091;28;20505;-66
2023/07/30 04:37:59;;;;;;;3.60;2.05;;;19.00;99.90;;;;;;5014141;28;20037;-66
2023/07/30 04:40:25;;;;;;;3.00;1.50;;;19.00;99.90;;;;;;5014003;28;20063;-66
2023/07/30 04:42:50;;;;;;;6.32;2.05;;;19.00;99.90;;;;;;5013454;28;20029;-66
2023/07/30 04:45:16;;;;;;;5.45;2.20;;;19.00;99.90;;;;;;5014003;28;20029;-66
2023/07/30 04:47:42;;;;;;;4.55;2.15;;;19.00;99.90;;;;;;5014030;28;20116;-66
2023/07/30 04:50:08;;;;;;;4.70;2.50;;;18.90;99.90;;;;;;5014134;28;20125;-66
2023/07/30 04:52:34;;;;;;;2.35;1.50;;;18.90;99.90;;;;;;5013110;28;20493;-68
2023/07/30 04:54:59;;;;;;;4.50;2.28;;;19.00;99.90;;;;;;5013613;28;20116;-66
2023/07/30 04:57:25;;;;;;;2.97;1.85;;;18.90;99.90;;;;;;5013739;28;20084;-67
2023/07/30 04:59:51;;;;;;;4.45;1.98;;;18.90;99.90;;;;;;5013810;28;20081;-67
2023/07/30 05:02:17;;;;;;;4.72;2.28;;;18.90;99.90;;;;;;5011298;28;20588;-67
2023/07/30 05:04:43;;;;;;;3.15;1.70;;;18.90;99.90;;;;;;5013556;28;20375;-67
2023/07/30 05:07:08;;;;;;;3.92;1.83;;;18.90;99.90;;;;;;5013754;28;20099;-67
2023/07/30 05:09:34;;;;;;;7.20;2.88;;;18.90;99.90;;;;;;4994930;28;20112;-67
2023/07/30 05:12:00;;;;;;;3.65;1.77;;;18.80;99.90;;;;;;5013269;28;20034;-67
2023/07/30 05:14:25;;;;;;;4.57;1.83;;;18.90;99.90;;;;;;5012279;28;20038;-67
2023/07/30 05:16:51;;;;;;;3.67;1.92;;;18.90;99.90;;;;;;5013237;28;20038;-67
2023/07/30 05:19:17;;;;;;;4.15;2.60;;;18.90;99.90;;;;;;5013251;28;20104;-67
2023/07/30 05:21:43;;;;;;;3.85;1.95;;;18.80;99.90;;;;;;5013382;28;20107;-67
2023/07/30 05:24:08;;;;;;;4.13;1.80;;;18.80;99.90;;;;;;5012232;28;20030;-67
2023/07/30 05:26:34;;;;;;;4.25;2.30;;;18.80;99.90;;;;;;5013096;28;20502;-66
2023/07/30 05:29:00;;;;;;;3.50;1.95;;;18.70;99.90;;;;;;4995663;28;20053;-67
2023/07/30 05:31:26;;;;;;;4.07;1.85;;;18.80;99.90;;;;;;5011874;28;20516;-67
2023/07/30 05:33:52;;;;;;;5.13;2.05;;;18.90;99.90;;;;;;5012303;28;20148;-67
2023/07/30 05:36:17;;;;;;;4.32;1.83;;;18.90;99.90;;;;;;5013075;28;20030;-66
2023/07/30 05:38:43;;;;;;;5.90;2.15;;;18.90;99.90;;;;;;5012940;28;20412;-67
2023/07/30 05:41:09;;;;;;;4.72;2.13;;;19.00;99.90;;;;;;4995263;28;20053;-67
2023/07/30 05:43:34;;;;;;;5.80;2.53;;;19.00;99.90;;;;;;5012225;28;20034;-67
2023/07/30 05:46:00;;;;;;;5.88;1.90;;;19.10;99.90;;;;;;5012753;28;20489;-66
2023/07/30 05:48:26;;;;;;;4.45;2.10;;;19.10;99.90;;;;;;5012852;28;20066;-66
2023/07/30 05:50:51;;;;;;;5.60;1.88;;;19.20;99.90;;;;;;5012598;28;20037;-67
2023/07/30 05:53:17;;;;;;;4.47;1.90;;;19.20;99.90;;;;;;5012006;28;20038;-67
2023/07/30 05:55:43;;;;;;;3.90;1.80;;;19.20;99.90;;;;;;5012750;28;20037;-67
2023/07/30 05:58:09;;;;;;;2.78;1.70;;;19.30;99.90;;;;;;5012806;28;20038;-66
2023/07/30 06:00:34;;;;;;;3.55;1.58;;;19.40;99.90;;;;;;5012452;28;20030;-67
2023/07/30 06:03:01;;;;;;;7.45;2.15;;;19.40;99.90;;;;;;5011682;28;20137;-66
2023/07/30 06:05:27;;;;;;;4.72;2.28;;;19.50;99.90;;;;;;5012621;28;20050;-67
2023/07/30 06:07:53;;;;;;;3.42;1.70;;;19.70;99.90;;;;;;5012550;28;20509;-67
2023/07/30 06:10:18;;;;;;;4.18;1.88;;;19.80;99.90;;;;;;5012545;28;20037;-67
2023/07/30 06:12:44;;;;;;;4.47;2.20;;;19.90;99.90;;;;;;5011410;28;20092;-67
2023/07/30 06:15:10;;;;;;;3.30;1.92;;;20.00;99.90;;;;;;5010948;28;20093;-65
2023/07/30 06:17:36;;;;;;;2.90;1.50;;;20.20;99.90;;;;;;5012072;28;20088;-67
2023/07/30 06:20:02;;;;;;;3.28;1.20;;;20.40;99.90;;;;;;5009863;28;20076;-65
2023/07/30 06:22:28;;;;;;;2.35;1.30;;;20.30;99.90;;;;;;5010582;28;20474;-65
2023/07/30 06:24:54;;;;;;;8.93;1.67;;;20.50;99.90;;;;;;5015675;28;20037;-65
2023/07/30 06:27:19;;;;;;;1.60;1.10;;;20.50;99.90;;;;;;5008185;28;20033;-65
2023/07/30 06:29:45;;;;;;;2.65;1.40;;;20.50;99.90;;;;;;5012061;28;20037;-65
2023/07/30 06:32:11;;;;;;;2.20;1.20;;;20.30;99.90;;;;;;5011873;28;20036;-65
2023/07/30 06:34:37;;;;;;;3.92;1.52;;;20.30;99.90;;;;;;5010914;28;20117;-65
2023/07/30 06:37:02;;;;;;;2.67;1.40;;;20.30;99.90;;;;;;5011879;28;20037;-66
2023/07/30 06:39:28;;;;;;;6.68;1.20;;;20.20;99.90;;;;;;5011525;28;20393;-68
2023/07/30 06:41:54;;;;;;;3.00;0.98;;;20.30;99.90;;;;;;4994377;28;20609;-66
2023/07/30 06:44:20;;;;;;;6.32;1.73;;;20.20;99.90;;;;;;5009764;28;20547;-65
2023/07/30 06:46:46;;;;;;;4.18;1.48;;;20.30;99.90;;;;;;4994340;28;20065;-66
2023/07/30 06:49:11;;;;;;;4.90;1.33;;;20.40;99.90;;;;;;5011596;28;20087;-66
2023/07/30 06:51:37;;;;;;;2.83;1.60;;;20.50;99.90;;;;;;5011783;28;20095;-67
2023/07/30 06:54:03;;;;;;;3.33;1.15;;;20.60;99.90;;;;;;5010832;28;20536;-66
2023/07/30 06:56:28;;;;;;;1.85;1.10;;;20.60;99.90;;;;;;5011514;28;20042;-66
2023/07/30 06:58:54;;;;;;;2.38;1.30;;;20.60;99.90;;;;;;5011545;28;20421;-66
2023/07/30 07:01:20;;;;;;;2.90;1.50;;;20.70;99.90;;;;;;5011480;28;20030;-69
2023/07/30 07:03:45;;;;;;;2.85;1.20;;;20.70;99.90;;;;;;5010961;28;20038;-67
2023/07/30 07:06:11;;;;;;;2.60;1.45;;;20.70;99.90;;;;;;5010970;28;20123;-73
2023/07/30 07:08:37;;;;;;;1.42;1.20;;;20.60;99.90;;;;;;5011255;28;20045;-65
2023/07/30 07:11:03;;;;;;;1.40;0.98;;;20.70;99.90;;;;;;5011316;28;20030;-65
2023/07/30 07:13:28;;;;;;;2.00;1.00;;;20.70;99.90;;;;;;5010298;28;20046;-65
2023/07/30 07:15:54;;;;;;;2.28;1.00;;;20.90;99.90;;;;;;5011276;28;20409;-65
2023/07/30 07:18:20;;;;;;;1.58;0.98;;;20.90;99.90;;;;;;5011271;28;20127;-66
2023/07/30 07:20:45;;;;;;;1.55;0.93;;;20.90;99.90;;;;;;5011007;28;20034;-66
2023/07/30 07:23:11;;;;;;;3.47;1.30;;;20.80;99.90;;;;;;5010138;28;20030;-66
2023/07/30 07:25:37;;;;;;;5.63;1.10;;;20.60;99.90;;;;;;5010932;28;20104;-66
2023/07/30 07:28:03;;;;;;;4.07;1.27;;;20.50;99.90;;;;;;5011245;28;20452;-67
2023/07/30 07:30:29;;;;;;;1.95;1.10;;;20.30;99.90;;;;;;5010758;28;20022;-68
2023/07/30 07:32:55;;;;;;;5.10;1.33;;;20.10;99.90;;;;;;5010304;28;20030;-68
2023/07/30 07:35:21;;;;;;;2.03;1.13;;;20.00;99.90;;;;;;5010770;28;20493;-68
2023/07/30 07:37:47;;;;;;;2.97;1.73;;;20.00;99.90;;;;;;4997868;28;20045;-69
2023/07/30 07:40:13;;;;;;;2.65;1.55;;;20.00;99.90;;;;;;4991199;28;20030;-68
2023/07/30 07:42:39;;;;;;;4.05;1.65;;;20.00;99.90;;;;;;4990653;28;20030;-68
2023/07/30 07:45:06;;;;;;;2.22;1.25;;;20.20;99.90;;;;;;4991248;28;20030;-68
2023/07/30 07:47:32;;;;;;;2.45;1.33;;;20.20;99.90;;;;;;4959071;28;20046;-68
2023/07/30 07:49:58;;;;;;;3.50;1.90;;;20.30;99.90;;;;;;4981992;28;20029;-68
2023/07/30 07:52:24;;;;;;;2.20;1.25;;;20.30;99.90;;;;;;5009664;28;20050;-67
2023/07/30 07:54:49;;;;;;;2.85;1.38;;;20.30;99.90;;;;;;5008210;28;20053;-67
2023/07/30 07:57:15;;;;;;;3.65;2.00;;;20.40;99.90;;;;;;5009912;28;20026;-66
2023/07/30 07:59:44;;;;;;;4.38;1.58;;;20.50;99.90;;;;;;5010647;28;20022;-67
2023/07/30 08:02:11;;;;;;;4.40;1.55;;;20.70;99.90;;;;;;5010331;28;20030;-67
2023/07/30 08:04:37;;;;;;;3.15;1.73;;;20.90;99.90;;;;;;4992407;28;20057;-67
2023/07/30 08:07:03;;;;;;;5.35;1.10;;;21.10;99.90;;;;;;5002751;28;20031;-67
2023/07/30 08:09:30;;;;;;;1.85;1.30;;;21.20;99.90;;;;;;4989657;28;20057;-67
2023/07/30 08:11:56;;;;;;;2.70;1.58;;;21.40;99.90;;;;;;4994474;28;20048;-66
2023/07/30 08:14:22;;;;;;;2.15;1.27;;;21.30;99.90;;;;;;5005390;28;20030;-66
2023/07/30 08:16:47;;;;;;;2.65;1.40;;;21.50;99.90;;;;;;5008526;28;20037;-66
2023/07/30 08:19:13;;;;;;;2.20;1.23;;;21.50;99.90;;;;;;5008997;28;20056;-67
2023/07/30 08:21:39;;;;;;;2.25;1.10;;;21.70;99.90;;;;;;5008731;28;20032;-65
2023/07/30 08:24:05;;;;;;;2.97;1.40;;;21.80;99.90;;;;;;5006999;28;20042;-66
2023/07/30 08:26:32;;;;;;;4.60;1.50;;;21.70;99.90;;;;;;5009777;28;20056;-67
2023/07/30 08:28:57;;;;;;;3.65;1.40;;;21.70;99.90;;;;;;5010458;28;20030;-67
2023/07/30 08:31:24;;;;;;;3.20;1.27;;;21.60;99.90;;;;;;5009975;28;20037;-67
2023/07/30 08:33:49;;;;;;;2.33;1.25;;;21.50;99.90;;;;;;5009694;28;20121;-66
2023/07/30 08:36:15;;;;;;;2.35;0.93;;;21.50;99.90;;;;;;4992421;28;20124;-66
2023/07/30 08:38:41;;;;;;;1.40;0.80;;;21.70;99.90;;;;;;5013858;28;20066;-67
2023/07/30 08:41:07;;;;;;;5.43;1.00;;;21.70;99.90;;;;;;5013839;28;20052;-67
2023/07/30 08:43:34;;;;;;;2.08;1.27;;;21.80;99.90;;;;;;5012914;28;20029;-66
2023/07/30 08:46:01;;;;;;;0.85;0.47;;;21.90;99.90;;;;;;4996259;28;20034;-66
2023/07/30 08:48:27;;;;;;;1.27;0.68;;;22.00;99.90;;;;;;5013714;28;20092;-66
2023/07/30 08:50:57;;;;;;;1.40;0.77;;;22.10;99.90;;;;;;5013634;28;20104;-66
2023/07/30 08:53:26;;;;;;;1.45;0.68;;;22.10;99.90;;;;;;5013106;28;20069;-67
2023/07/30 08:55:55;;;;;;;1.63;0.60;;;22.10;99.90;;;;;;5013475;28;20036;-67
2023/07/30 08:58:23;;;;;;;2.40;0.77;;;22.20;99.90;;;;;;5012620;28;20116;-67
2023/07/30 09:00:51;;;;;;;2.25;1.30;;;22.40;99.90;;;;;;4996104;28;20036;-67
2023/07/30 09:03:18;;;;;;;1.40;0.82;;;22.50;99.90;;;;;;5011398;28;20022;-66
2023/07/30 09:05:44;;;;;;;1.67;0.57;;;22.60;99.90;;;;;;5013137;28;20493;-66
2023/07/30 09:08:11;;;;;;;1.10;0.50;;;22.80;99.90;;;;;;5013595;28;20080;-66
2023/07/30 09:10:37;;;;;;;4.57;0.93;;;23.00;99.90;;;;;;5011977;28;20041;-66
2023/07/30 09:13:03;;;;;;;2.30;1.00;;;23.20;99.90;;;;;;5012780;28;20052;-67
2023/07/30 09:15:39;;;;;;;1.33;0.63;;;22.90;99.90;;;;;;5013265;28;20128;-67
2023/07/30 09:18:08;;;;;;;2.33;1.30;;;22.70;99.90;;;;;;5011955;28;20485;-67
2023/07/30 09:20:38;;;;;;;0.95;0.60;;;22.40;99.90;;;;;;5012942;28;20034;-67
2023/07/30 09:23:09;;;;;;;1.60;0.90;;;22.40;99.90;;;;;;5011214;28;20028;-67
2023/07/30 09:25:37;;;;;;;1.33;0.82;;;22.50;99.90;;;;;;5013326;28;20037;-67
2023/07/30 09:28:04;;;;;;;1.73;0.85;;;22.40;99.90;;;;;;5013130;28;20038;-67
2023/07/30 09:30:30;;;;;;;2.15;1.08;;;22.70;99.90;;;;;;5013128;28;20113;-66
2023/07/30 09:32:57;;;;;;;2.35;0.70;;;22.90;99.90;;;;;;5010643;28;20108;-67
2023/07/30 09:35:25;;;;;;;2.63;1.00;;;22.70;99.90;;;;;;4999699;28;20487;-66
2023/07/30 09:37:59;;;;;;;0.93;0.60;;;22.70;99.90;;;;;;4975823;28;20030;-65
2023/07/30 09:40:34;;;;;;;1.55;0.75;;;22.90;99.90;;;;;;4993348;28;20030;-66
2023/07/30 09:42:59;;;;;;;2.88;0.70;;;22.80;99.90;;;;;;4987980;28;20660;-65
2023/07/30 09:45:26;;;;;;;3.25;0.80;;;22.90;99.90;;;;;;5010822;28;20072;-66
2023/07/30 09:47:53;;;;;;;1.40;0.90;;;23.10;99.90;;;;;;5012679;28;20041;-67
2023/07/30 09:50:19;;;;;;;1.13;0.60;;;22.80;99.90;;;;;;4994941;28;20401;-66
2023/07/30 09:52:46;;;;;;;2.65;1.05;;;22.90;99.90;;;;;;4978458;28;20044;-66
2023/07/30 09:55:12;;;;;;;3.00;0.88;;;22.70;99.90;;;;;;5012419;28;20065;-65
2023/07/30 09:57:38;;;;;;;1.77;0.95;;;22.70;99.90;;;;;;4995166;28;20042;-64
2023/07/30 10:00:08;;;;;;;1.05;0.70;;;22.90;99.90;;;;;;4995058;28;20497;-67
2023/07/30 10:02:43;;;;;;;5.32;1.23;;;22.70;99.90;;;;;;4988412;28;20681;-66
2023/07/30 10:05:14;;;;;;;1.25;0.60;;;22.60;99.90;;;;;;4945198;28;20034;-66
2023/07/30 10:08:02;;;;;;;1.63;0.52;;;22.50;99.90;;;;;;5002744;28;20113;-65
2023/07/30 10:10:29;;;;;;;8.88;1.20;;;22.50;99.90;;;;;;4967239;28;20024;-66
2023/07/30 10:13:05;;;;;;;1.33;0.63;;;22.20;99.90;;;;;;4974868;28;20399;-65
2023/07/30 10:15:37;;;;;;;1.73;0.65;;;22.20;99.90;;;;;;4975758;28;20034;-66
2023/07/30 10:18:02;;;;;;;1.35;0.70;;;22.00;99.90;;;;;;4976905;28;20418;-66
2023/07/30 10:20:30;;;;;;;2.22;0.85;;;22.10;99.90;;;;;;5011697;28;20040;-66
2023/07/30 10:22:58;;;;;;;3.10;1.35;;;22.60;99.90;;;;;;4993503;28;20022;-64
2023/07/30 10:25:42;;;;;;;2.17;0.95;;;22.80;99.90;;;;;;5053353;22;20052;-67
2023/07/30 10:28:08;;;;;;;0.80;0.32;;;23.00;99.90;;;;;;5060750;28;20521;-67
2023/07/30 10:30:34;;;;;;;1.25;0.65;;;23.10;99.90;;;;;;5066215;28;20036;-68
2023/07/30 10:33:09;;;;;;;0.95;0.47;;;23.00;99.90;;;;;;5071570;28;20506;-66
2023/07/30 10:35:43;;;;;;;0.55;0.40;;;22.90;99.90;;;;;;5034172;28;20037;-65
2023/07/30 10:38:28;;;;;;;1.08;0.55;;;22.90;99.90;;;;;;5030211;28;20497;-66
2023/07/30 10:41:10;;;;;;;0.30;0.30;;;23.00;99.90;;;;;;5032340;28;20029;-64
2023/07/30 10:43:39;;;;;;;0.60;0.35;;;23.00;99.90;;;;;;5013836;28;20025;-65
2023/07/30 10:46:07;;;;;;;1.25;0.70;;;23.10;99.90;;;;;;5031446;28;20048;-66
2023/07/30 10:48:41;;;;;;;1.08;0.35;;;23.10;99.90;;;;;;5013824;28;20044;-66
2023/07/30 10:51:12;;;;;;;0.63;0.38;;;22.90;99.90;;;;;;5010300;28;20036;-67
2023/07/30 10:53:39;;;;;;;3.45;0.75;;;22.70;99.30;;;;;;4994518;28;20065;-68
2023/07/30 10:56:06;;;;;;;5.57;0.45;;;22.70;97.30;;;;;;4996691;28;20033;-66
2023/07/30 10:58:35;;;;;;;0.60;0.30;;;22.70;97.10;;;;;;5010244;28;20401;-66
2023/07/30 11:01:06;;;;;;;0.60;0.22;;;23.00;97.00;;;;;;5010946;28;20029;-66
2023/07/30 11:03:33;;;;;;;2.97;0.43;;;22.80;97.80;;;;;;5003263;28;20116;-66
2023/07/30 11:06:03;;;;;;;1.85;0.28;;;22.70;99.90;;;;;;5020154;28;20036;-67
2023/07/30 11:08:41;;;;;;;0.63;0.38;;;22.50;99.90;;;;;;5004820;28;20036;-68
2023/07/30 11:11:09;;;;;;;1.05;0.45;;;23.00;99.90;;;;;;5021271;28;20036;-68
2023/07/30 11:13:43;;;;;;;1.38;0.50;;;23.30;99.90;;;;;;5000261;28;20040;-68
2023/07/30 11:16:10;;;;;;;0.85;0.40;;;23.30;99.90;;;;;;5007462;28;20037;-67
2023/07/30 11:18:37;;;;;;;4.07;1.15;;;23.00;99.90;;;;;;5019195;28;20038;-67
2023/07/30 11:21:16;;;;;;;2.50;0.85;;;22.90;98.90;;;;;;5006576;28;20568;-67
2023/07/30 11:23:43;;;;;;;1.13;0.30;;;23.30;99.90;;;;;;5017822;28;20083;-67
2023/07/30 11:26:16;;;;;;;2.22;0.73;;;23.40;99.50;;;;;;4996047;28;20533;-68
2023/07/30 11:28:41;;;;;;;1.15;0.45;;;23.30;99.70;;;;;;5025876;28;20509;-67
2023/07/30 11:31:10;;;;;;;1.00;0.52;;;23.10;99.70;;;;;;5023597;28;20037;-69
2023/07/30 11:33:38;;;;;;;3.05;0.52;;;23.00;98.40;;;;;;5011093;28;20033;-66
2023/07/30 11:36:06;;;;;;;4.05;0.50;;;22.80;98.70;;;;;;5005606;28;20413;-67
2023/07/30 11:38:32;;;;;;;1.95;0.70;;;22.50;98.30;;;;;;4995184;28;20091;-67
2023/07/30 11:40:59;;;;;;;0.93;0.38;;;22.40;99.00;;;;;;5032300;28;20075;-67
2023/07/30 11:43:25;;;;;;;1.05;0.50;;;22.50;98.80;;;;;;5048776;28;20021;-67
2023/07/30 11:46:08;;;;;;;1.33;0.40;;;22.80;98.90;;;;;;5049219;28;20556;-67
2023/07/30 11:48:35;;;;;;;1.15;0.50;;;22.90;97.40;;;;;;5037479;28;20030;-67
2023/07/30 11:51:01;;;;;;;0.43;0.32;;;23.10;97.50;;;;;;5008737;28;20030;-67
2023/07/30 11:53:47;;;;;;;1.42;0.70;;;23.50;95.60;;;;;;4991148;28;20048;-67
2023/07/30 11:56:22;;;;;;;2.20;0.55;;;23.30;95.80;;;;;;5010105;28;20072;-67
2023/07/30 11:58:49;;;;;;;2.75;0.57;;;22.90;95.50;;;;;;5009958;28;20030;-67
2023/07/30 12:01:18;;;;;;;1.02;0.60;;;23.00;96.20;;;;;;5009835;28;20057;-66
2023/07/30 12:03:45;;;;;;;1.15;0.55;;;22.80;94.30;;;;;;4991728;28;20072;-66
2023/07/30 12:06:11;;;;;;;1.58;0.60;;;22.70;96.30;;;;;;5025117;28;20029;-66
2023/07/30 12:08:38;;;;;;;2.05;0.70;;;22.60;94.00;;;;;;5031300;28;20032;-67
2023/07/30 12:11:06;;;;;;;2.25;1.17;;;22.80;92.90;;;;;;5049788;28;20052;-67
2023/07/30 12:13:33;;;;;;;1.70;0.57;;;22.70;92.10;;;;;;5034921;28;20048;-67
2023/07/30 12:15:59;;;;;;;1.15;0.50;;;22.80;93.10;;;;;;5023528;28;20033;-67
2023/07/30 12:18:27;;;;;;;1.33;0.47;;;22.70;94.00;;;;;;5015446;28;20378;-67
2023/07/30 12:20:53;;;;;;;0.43;0.38;;;22.90;94.30;;;;;;5015982;28;20033;-66
2023/07/30 12:23:20;;;;;;;2.55;0.90;;;22.80;93.70;;;;;;5014461;28;20037;-67
2023/07/30 12:25:46;;;;;;;1.88;0.77;;;22.70;93.90;;;;;;5012828;28;20116;-67
2023/07/30 12:28:13;;;;;;;5.13;0.88;;;22.50;94.50;;;;;;5015532;28;20084;-67
2023/07/30 12:30:39;;;;;;;1.48;1.35;;;22.70;93.50;;;;;;5028265;28;20104;-66
2023/07/30 12:33:06;;;;;;;4.13;0.85;;;22.90;93.10;;;;;;5029854;28;20366;-66
2023/07/30 12:35:33;;;;;;;2.28;0.80;;;23.10;93.20;;;;;;5037722;28;20036;-66
2023/07/30 12:38:00;;;;;;;2.30;0.57;;;23.50;91.40;;;;;;5040330;28;20045;-67
2023/07/30 12:40:29;;;;;;;1.63;0.55;;;23.40;91.10;;;;;;5035370;28;20033;-67
2023/07/30 12:42:55;;;;;;;2.10;0.50;;;23.40;92.50;;;;;;5032317;28;20071;-59
2023/07/30 12:45:21;;;;;;;1.70;0.65;;;23.30;92.20;;;;;;5032656;28;20021;-59
2023/07/30 12:47:47;;;;;;;2.22;0.75;;;23.50;91.60;;;;;;5031215;28;20038;-58